createdAt,value
2017-01-12T17:36:08.965Z,67.98
2017-01-12T17:37:09.378Z,67.6
2017-01-12T17:38:09.398Z,67.47
2017-01-12T17:39:09.011Z,67.38
2017-01-12T17:40:09.424Z,67.94
2017-01-12T17:41:09.041Z,68.13
2017-01-12T17:42:09.057Z,68.55
2017-01-12T17:43:09.122Z,67.69
2017-01-12T17:44:09.087Z,67.85
2017-01-12T17:45:09.104Z,67.88
2017-01-12T17:46:09.137Z,67.6
2017-01-12T17:47:09.175Z,67.41
2017-01-12T17:48:09.150Z,67.69
2017-01-12T17:49:09.167Z,67.13
2017-01-12T17:50:09.575Z,67.41
2017-01-12T17:51:09.596Z,67.88
2017-01-12T17:52:09.608Z,67.79
2017-01-12T17:53:09.226Z,67.88
2017-01-12T17:54:09.240Z,67.41
2017-01-12T17:55:09.258Z,67.69
2017-01-12T17:56:09.669Z,68.23
2017-01-12T17:57:09.698Z,68.61
2017-01-12T17:58:09.302Z,68.33
2017-01-12T17:59:09.718Z,68.52
2017-01-12T18:00:09.732Z,68.42
2017-01-12T18:01:09.347Z,68.04
2017-01-12T18:02:09.364Z,68.23
2017-01-12T18:03:09.779Z,68.23
2017-01-12T18:04:09.793Z,67.85
2017-01-12T18:05:09.410Z,68.52
2017-01-12T18:06:09.827Z,68.71
2017-01-12T18:07:09.443Z,69.27
2017-01-12T18:08:09.911Z,69.56
2017-01-12T18:09:09.471Z,69.75
2017-01-12T18:10:09.885Z,70.04
2017-01-12T18:11:09.900Z,70
2017-01-12T18:12:09.520Z,70.1
2017-01-12T18:13:09.534Z,70.38
2017-01-12T18:14:09.958Z,70
2017-01-12T18:15:09.563Z,70.48
2017-01-12T18:16:09.601Z,70.32
2017-01-12T18:17:09.992Z,70.48
2017-01-12T18:18:09.610Z,70
2017-01-12T18:19:09.673Z,70.95
2017-01-12T18:20:09.639Z,71.62
2017-01-12T18:21:09.661Z,71.14
2017-01-12T18:22:09.700Z,71.43
2017-01-12T18:23:10.085Z,71.43
2017-01-12T18:24:10.103Z,71.71
2017-01-12T18:25:10.117Z,72
2017-01-12T18:26:10.130Z,72.09
2017-01-12T18:27:10.145Z,72.19
2017-01-12T18:28:09.768Z,71.81
2017-01-12T18:29:10.175Z,71.33
2017-01-12T18:30:09.794Z,71.23
2017-01-12T18:31:09.808Z,71.04
2017-01-12T18:32:09.823Z,71.04
2017-01-12T18:33:10.234Z,71.33
2017-01-12T18:34:09.853Z,71.33
2017-01-12T18:35:10.267Z,71.23
2017-01-12T18:36:09.887Z,70.57
2017-01-12T18:37:10.300Z,70.67
2017-01-12T18:38:09.998Z,70.67
2017-01-12T18:39:10.330Z,71.14
2017-01-12T18:40:09.944Z,71.52
2017-01-12T18:41:09.960Z,71.23
2017-01-12T18:42:09.977Z,71.23
2017-01-12T18:43:09.990Z,70.86
2017-01-12T18:44:10.006Z,71.14
2017-01-12T18:45:10.018Z,71.33
2017-01-12T18:46:10.430Z,71.23
2017-01-12T18:47:10.450Z,71.23
2017-01-12T18:48:10.065Z,71.14
2017-01-12T18:49:10.477Z,71.23
2017-01-12T18:50:10.495Z,71.14
2017-01-12T18:51:10.508Z,71.14
2017-01-12T18:52:10.129Z,71.04
2017-01-12T18:53:10.538Z,71.14
2017-01-12T18:54:10.554Z,71.33
2017-01-12T18:55:10.168Z,71.33
2017-01-12T18:56:10.187Z,70.95
2017-01-12T18:57:10.609Z,71.23
2017-01-12T18:58:10.328Z,71.04
2017-01-12T18:59:10.247Z,71.43
2017-01-12T19:00:10.260Z,71.71
2017-01-12T19:01:10.261Z,71.23
2017-01-12T19:02:10.676Z,71.04
2017-01-12T19:03:10.715Z,71.04
2017-01-12T19:04:10.303Z,70.76
2017-01-12T19:05:10.323Z,70.79
2017-01-12T19:06:10.341Z,70.42
2017-01-12T19:07:10.353Z,70.04
2017-01-12T19:08:10.370Z,70.38
2017-01-12T19:09:10.380Z,69.91
2017-01-12T19:10:10.398Z,70.86
2017-01-12T19:11:10.810Z,71.04
2017-01-12T19:12:10.479Z,71.04
2017-01-12T19:13:10.442Z,71.14
2017-01-12T19:14:10.460Z,71.23
2017-01-12T19:15:10.870Z,71.14
2017-01-12T19:16:10.489Z,71.23
2017-01-12T19:17:10.952Z,71.14
2017-01-12T19:18:10.517Z,71.71
2017-01-12T19:19:10.537Z,71.23
2017-01-12T19:20:10.548Z,71.14
2017-01-12T19:21:10.566Z,70.95
2017-01-12T19:22:10.582Z,70.38
2017-01-12T19:23:10.595Z,70.38
2017-01-12T19:24:10.617Z,70.57
2017-01-12T19:25:10.856Z,70.51
2017-01-12T19:26:11.041Z,70.51
2017-01-12T19:27:10.656Z,70.32
2017-01-12T19:28:11.077Z,70.19
2017-01-12T19:29:11.087Z,71.04
2017-01-12T19:30:11.099Z,71.04
2017-01-12T19:31:10.716Z,70.95
2017-01-12T19:32:10.730Z,70.86
2017-01-12T19:33:10.745Z,70.95
2017-01-12T19:34:11.159Z,70.76
2017-01-12T19:35:10.779Z,70.76
2017-01-12T19:36:10.799Z,71.04
2017-01-12T19:37:11.209Z,71.23
2017-01-12T19:38:10.825Z,71.14
2017-01-12T19:39:10.839Z,70.86
2017-01-12T19:40:10.855Z,70.76
2017-01-12T19:41:10.868Z,70.51
2017-01-12T19:42:10.885Z,70.42
2017-01-12T19:43:11.296Z,70
2017-01-12T19:44:11.315Z,70.95
2017-01-12T19:45:10.930Z,70.86
2017-01-12T19:46:11.346Z,71.14
2017-01-12T19:47:11.360Z,70.19
2017-01-12T19:48:11.374Z,70.86
2017-01-12T19:49:11.391Z,71.04
2017-01-12T19:50:11.009Z,71.33
2017-01-12T19:51:11.024Z,71.14
2017-01-12T19:52:11.036Z,70.95
2017-01-12T19:53:11.053Z,71.14
2017-01-12T19:54:11.070Z,71.23
2017-01-12T19:55:11.082Z,71.33
2017-01-12T19:56:11.498Z,71.33
2017-01-12T19:57:11.512Z,71.43
2017-01-12T19:58:11.129Z,71.33
2017-01-12T19:59:11.142Z,71.9
2017-01-12T20:00:11.559Z,72.28
2017-01-12T20:01:11.176Z,72.56
2017-01-12T20:02:11.586Z,72.09
2017-01-12T20:03:11.654Z,72.09
2017-01-12T20:04:11.618Z,72
2017-01-12T20:05:11.642Z,72.38
2017-01-12T20:06:11.250Z,71.71
2017-01-12T20:07:11.663Z,71.43
2017-01-12T20:08:11.679Z,71.43
2017-01-12T20:09:11.695Z,71.43
2017-01-12T20:10:11.313Z,71.71
2017-01-12T20:11:11.325Z,71.81
2017-01-12T20:12:11.361Z,71.43
2017-01-12T20:13:11.403Z,71.52
2017-01-12T20:14:11.770Z,71.43
2017-01-12T20:15:11.386Z,71.52
2017-01-12T20:16:11.799Z,71.81
2017-01-12T20:17:11.416Z,71.33
2017-01-12T20:18:11.929Z,71.04
2017-01-12T20:19:11.846Z,71.71
2017-01-12T20:20:11.860Z,71.52
2017-01-12T20:21:11.475Z,71.04
2017-01-12T20:22:11.888Z,70.86
2017-01-12T20:23:11.509Z,70.48
2017-01-12T20:24:11.918Z,70.67
2017-01-12T20:25:11.934Z,70.86
2017-01-12T20:26:11.954Z,71.14
2017-01-12T20:27:11.567Z,70.86
2017-01-12T20:28:11.582Z,71.04
2017-01-12T20:29:11.599Z,70.95
2017-01-12T20:30:12.009Z,70.86
2017-01-12T20:31:12.025Z,70.67
2017-01-12T20:32:11.645Z,70.99
2017-01-12T20:33:12.056Z,71.33
2017-01-12T20:34:12.073Z,71.71
2017-01-12T20:35:11.685Z,71.33
2017-01-12T20:36:12.099Z,71.43
2017-01-12T20:37:12.115Z,71.62
2017-01-12T20:38:11.733Z,70.95
2017-01-12T20:39:12.146Z,70.57
2017-01-12T20:40:12.161Z,71.23
2017-01-12T20:41:12.177Z,71.71
2017-01-12T20:42:12.195Z,71.71
2017-01-12T20:43:11.807Z,71.33
2017-01-12T20:44:12.220Z,72
2017-01-12T20:45:11.839Z,72.28
2017-01-12T20:46:11.904Z,72
2017-01-12T20:47:11.869Z,72.47
2017-01-12T20:48:12.285Z,72.66
2017-01-12T20:49:11.899Z,72.85
2017-01-12T20:50:12.342Z,72.75
2017-01-12T20:51:12.431Z,73.04
2017-01-12T20:52:11.943Z,72.95
2017-01-12T20:53:11.957Z,72.28
2017-01-12T20:54:12.371Z,72.85
2017-01-12T20:55:11.990Z,72.85
2017-01-12T20:56:12.400Z,72.95
2017-01-12T20:57:12.416Z,72.85
2017-01-12T20:58:12.033Z,72.95
2017-01-12T20:59:12.459Z,72.47
2017-01-12T21:00:12.061Z,72.66
2017-01-12T21:01:12.077Z,73.04
2017-01-12T21:02:12.492Z,73.23
2017-01-12T21:03:12.519Z,73.48
2017-01-12T21:04:12.133Z,73.42
2017-01-12T21:05:12.540Z,73.57
2017-01-12T21:06:12.158Z,73.76
2017-01-12T21:07:12.589Z,74.24
2017-01-12T21:08:12.181Z,74.43
2017-01-12T21:09:12.648Z,75.57
2017-01-12T21:10:12.215Z,75.57
2017-01-12T21:11:12.227Z,75
2017-01-12T21:12:12.245Z,75
2017-01-12T21:13:12.655Z,75.28
2017-01-12T21:14:12.672Z,75.57
2017-01-12T21:15:12.350Z,75.95
2017-01-12T21:16:12.303Z,75.57
2017-01-12T21:17:12.716Z,75.47
2017-01-12T21:18:12.730Z,76.42
2017-01-12T21:19:12.344Z,76.14
2017-01-12T21:20:12.359Z,76.14
2017-01-12T21:21:12.775Z,75.38
2017-01-12T21:22:12.787Z,75.47
2017-01-12T21:23:12.408Z,74.81
2017-01-12T21:24:12.418Z,75.28
2017-01-12T21:25:12.431Z,75
2017-01-12T21:26:12.449Z,75.28
2017-01-12T21:27:12.860Z,74.9
2017-01-12T21:28:12.478Z,74.71
2017-01-12T21:29:12.889Z,75.09
2017-01-12T21:30:12.904Z,75.57
2017-01-12T21:31:12.519Z,75.57
2017-01-12T21:32:12.935Z,75.28
2017-01-12T21:33:12.551Z,76.04
2017-01-12T21:34:12.567Z,76.42
2017-01-12T21:35:12.581Z,76.14
2017-01-12T21:36:13.003Z,76.04
2017-01-12T21:37:12.607Z,76.23
2017-01-12T21:38:13.023Z,75.95
2017-01-12T21:39:13.047Z,76.14
2017-01-12T21:40:13.049Z,76.04
2017-01-12T21:41:12.665Z,76.42
2017-01-12T21:42:12.680Z,76.52
2017-01-12T21:43:12.746Z,76.14
2017-01-12T21:44:13.107Z,76.52
2017-01-12T21:45:13.122Z,76.23
2017-01-12T21:46:13.135Z,76.23
2017-01-12T21:47:12.755Z,75.57
2017-01-12T21:48:13.213Z,76.52
2017-01-12T21:49:13.180Z,76.14
2017-01-12T21:50:13.333Z,76.71
2017-01-12T21:51:13.217Z,76.8
2017-01-12T21:52:13.095Z,77.37
2017-01-12T21:53:13.368Z,77.47
2017-01-12T21:54:13.367Z,77.66
2017-01-12T21:55:12.964Z,76.99
2017-01-12T21:56:12.972Z,76.99
2017-01-12T21:57:13.513Z,76.99
2017-01-12T21:58:12.957Z,76.42
2017-01-12T21:59:13.033Z,76.9
2017-01-12T22:00:13.038Z,76.32
2017-01-12T22:01:13.048Z,76.42
2017-01-12T22:02:13.364Z,76.27
2017-01-12T22:03:13.379Z,76.04
2017-01-12T22:04:13.397Z,77.03
2017-01-12T22:05:13.416Z,76.27
2017-01-12T22:06:13.025Z,76.08
2017-01-12T22:07:13.442Z,75.99
2017-01-12T22:08:13.450Z,75.89
2017-01-12T22:09:13.303Z,76.14
2017-01-12T22:10:13.482Z,76.08
2017-01-12T22:11:13.496Z,76.18
2017-01-12T22:12:13.508Z,77.12
2017-01-12T22:13:13.125Z,76.65
2017-01-12T22:14:13.139Z,76.93
2017-01-12T22:15:13.154Z,78.08
2017-01-12T22:16:13.168Z,77.7
2017-01-12T22:17:13.582Z,76.84
2017-01-12T22:18:13.198Z,75.99
2017-01-12T22:19:13.610Z,77.03
2017-01-12T22:20:13.229Z,77.22
2017-01-12T22:21:13.638Z,77.79
2017-01-12T22:22:13.661Z,79.03
2017-01-12T22:23:13.695Z,80.26
2017-01-12T22:24:13.307Z,78.55
2017-01-12T22:25:13.697Z,77.31
2017-01-12T22:26:13.713Z,76.37
2017-01-12T22:27:13.727Z,77.51
2017-01-12T22:28:13.344Z,77.79
2017-01-12T22:29:13.356Z,78.27
2017-01-12T22:30:13.778Z,79.12
2017-01-12T22:31:13.388Z,79.03
2017-01-12T22:32:13.799Z,77.6
2017-01-12T22:33:13.811Z,76.84
2017-01-12T22:34:13.830Z,76.37
2017-01-12T22:35:13.445Z,75.99
2017-01-12T22:36:13.925Z,76.18
2017-01-12T22:37:13.507Z,76.18
2017-01-12T22:38:13.490Z,76.08
2017-01-12T22:39:13.963Z,75.99
2017-01-12T22:40:13.516Z,76.27
2017-01-12T22:41:13.531Z,76.37
2017-01-12T22:42:13.943Z,76.93
2017-01-12T22:43:14.017Z,76.84
2017-01-12T22:44:14.037Z,77.7
2017-01-12T22:45:13.993Z,77.51
2017-01-12T22:46:14.000Z,76.56
2017-01-12T22:47:14.018Z,76.46
2017-01-12T22:48:14.033Z,76.46
2017-01-12T22:49:14.049Z,76.65
2017-01-12T22:50:14.061Z,76.27
2017-01-12T22:51:13.676Z,75.89
2017-01-12T22:52:14.109Z,76.08
2017-01-12T22:53:14.105Z,75.99
2017-01-12T22:54:14.162Z,75.6
2017-01-12T22:55:13.792Z,75.42
2017-01-12T22:56:13.856Z,75.51
2017-01-12T22:57:14.163Z,75.99
2017-01-12T22:58:13.779Z,75.51
2017-01-12T22:59:14.222Z,75.13
2017-01-12T23:00:13.807Z,75.23
2017-01-12T23:01:14.222Z,75.51
2017-01-12T23:02:14.440Z,76.75
2017-01-12T23:03:14.259Z,76.27
2017-01-12T23:04:14.264Z,76.46
2017-01-12T23:05:13.884Z,76.46
2017-01-12T23:06:14.298Z,76.56
2017-01-12T23:07:13.964Z,76.08
2017-01-12T23:08:14.323Z,76.37
2017-01-12T23:09:13.940Z,76.56
2017-01-12T23:10:13.951Z,76.18
2017-01-12T23:11:13.968Z,76.46
2017-01-12T23:12:14.431Z,76.18
2017-01-12T23:13:14.395Z,75.7
2017-01-12T23:14:14.011Z,75.23
2017-01-12T23:15:14.425Z,76.18
2017-01-12T23:16:14.043Z,75.99
2017-01-12T23:17:14.454Z,77.31
2017-01-12T23:18:14.473Z,77.12
2017-01-12T23:19:14.082Z,75.7
2017-01-12T23:20:14.505Z,75.51
2017-01-12T23:21:14.125Z,76.46
2017-01-12T23:22:14.527Z,75.99
2017-01-12T23:23:14.541Z,76.37
2017-01-12T23:24:14.560Z,75.99
2017-01-12T23:25:14.171Z,75.79
2017-01-12T23:26:14.185Z,76.08
2017-01-12T23:27:14.597Z,76.18
2017-01-12T23:28:14.729Z,76.46
2017-01-12T23:29:14.629Z,76.65
2017-01-12T23:30:14.244Z,76.37
2017-01-12T23:31:14.666Z,75.6
2017-01-12T23:32:14.720Z,75.51
2017-01-12T23:33:14.690Z,74.94
2017-01-12T23:34:14.700Z,75.85
2017-01-12T23:35:14.315Z,75.95
2017-01-12T23:36:14.729Z,76.23
2017-01-12T23:37:14.741Z,76.71
2017-01-12T23:38:14.756Z,77.28
2017-01-12T23:39:14.771Z,76.71
2017-01-12T23:40:14.385Z,76.52
2017-01-12T23:41:14.400Z,76.42
2017-01-12T23:42:14.415Z,76.61
2017-01-12T23:43:14.832Z,77.18
2017-01-12T23:44:14.843Z,77.56
2017-01-12T23:45:14.459Z,77.18
2017-01-12T23:46:14.474Z,77.18
2017-01-12T23:47:14.490Z,77.47
2017-01-12T23:48:14.501Z,77.28
2017-01-12T23:49:14.515Z,78.13
2017-01-12T23:50:14.535Z,77.28
2017-01-12T23:51:14.942Z,78.89
2017-01-12T23:52:14.955Z,79.17
2017-01-12T23:53:14.971Z,77.47
2017-01-12T23:54:14.589Z,77.56
2017-01-12T23:55:14.601Z,77.43
2017-01-12T23:56:14.616Z,77.62
2017-01-12T23:57:15.030Z,78.56
2017-01-12T23:58:15.096Z,77.9
2017-01-12T23:59:15.057Z,78
